sensor_id;sensor_type;location;lat;lon;timestamp;P1;durP1;ratioP1;P2;durP2;ratioP2
35969;SDS011;22448;51.298;6.430;2024-01-10T00:00:41;30.80;;;12.60;;
35969;SDS011;22448;51.298;6.430;2024-01-10T00:03:08;30.67;;;12.85;;
35969;SDS011;22448;51.298;6.430;2024-01-10T00:05:35;33.63;;;12.65;;
35969;SDS011;22448;51.298;6.430;2024-01-10T00:08:02;27.55;;;12.10;;
35969;SDS011;22448;51.298;6.430;2024-01-10T00:10:29;32.03;;;12.88;;
35969;SDS011;22448;51.298;6.430;2024-01-10T00:12:56;26.80;;;12.20;;
35969;SDS011;22448;51.298;6.430;2024-01-10T00:15:23;28.48;;;12.63;;
35969;SDS011;22448;51.298;6.430;2024-01-10T00:17:50;28.52;;;11.35;;
35969;SDS011;22448;51.298;6.430;2024-01-10T00:20:17;25.48;;;11.38;;
35969;SDS011;22448;51.298;6.430;2024-01-10T00:22:45;24.42;;;11.05;;
35969;SDS011;22448;51.298;6.430;2024-01-10T00:25:12;25.48;;;11.10;;
35969;SDS011;22448;51.298;6.430;2024-01-10T00:27:39;25.33;;;11.55;;
35969;SDS011;22448;51.298;6.430;2024-01-10T00:30:06;29.80;;;11.32;;
35969;SDS011;22448;51.298;6.430;2024-01-10T00:32:35;24.33;;;10.93;;
35969;SDS011;22448;51.298;6.430;2024-01-10T00:35:02;23.50;;;9.63;;
35969;SDS011;22448;51.298;6.430;2024-01-10T00:37:29;23.80;;;10.10;;
35969;SDS011;22448;51.298;6.430;2024-01-10T00:39:56;25.25;;;10.23;;
35969;SDS011;22448;51.298;6.430;2024-01-10T00:42:23;23.55;;;11.07;;
35969;SDS011;22448;51.298;6.430;2024-01-10T00:44:50;24.67;;;10.85;;
35969;SDS011;22448;51.298;6.430;2024-01-10T00:47:17;26.88;;;11.13;;
35969;SDS011;22448;51.298;6.430;2024-01-10T00:49:45;21.23;;;9.65;;
35969;SDS011;22448;51.298;6.430;2024-01-10T00:52:12;24.83;;;11.82;;
35969;SDS011;22448;51.298;6.430;2024-01-10T00:54:39;23.52;;;9.32;;
35969;SDS011;22448;51.298;6.430;2024-01-10T00:57:06;24.30;;;10.30;;
35969;SDS011;22448;51.298;6.430;2024-01-10T00:59:33;23.13;;;9.38;;
35969;SDS011;22448;51.298;6.430;2024-01-10T01:02:00;26.60;;;10.27;;
35969;SDS011;22448;51.298;6.430;2024-01-10T01:04:27;19.55;;;9.63;;
35969;SDS011;22448;51.298;6.430;2024-01-10T01:06:54;20.70;;;9.70;;
35969;SDS011;22448;51.298;6.430;2024-01-10T01:09:21;27.23;;;9.90;;
35969;SDS011;22448;51.298;6.430;2024-01-10T01:11:48;21.38;;;9.10;;
35969;SDS011;22448;51.298;6.430;2024-01-10T01:14:15;22.73;;;10.27;;
35969;SDS011;22448;51.298;6.430;2024-01-10T01:16:42;21.25;;;9.10;;
35969;SDS011;22448;51.298;6.430;2024-01-10T01:19:09;20.98;;;9.48;;
35969;SDS011;22448;51.298;6.430;2024-01-10T01:21:36;22.52;;;9.48;;
35969;SDS011;22448;51.298;6.430;2024-01-10T01:24:04;22.70;;;10.43;;
35969;SDS011;22448;51.298;6.430;2024-01-10T01:26:31;22.58;;;10.15;;
35969;SDS011;22448;51.298;6.430;2024-01-10T01:28:58;22.67;;;10.35;;
35969;SDS011;22448;51.298;6.430;2024-01-10T01:31:25;20.40;;;9.63;;
35969;SDS011;22448;51.298;6.430;2024-01-10T01:33:52;19.40;;;9.55;;
35969;SDS011;22448;51.298;6.430;2024-01-10T01:36:19;22.55;;;8.88;;
35969;SDS011;22448;51.298;6.430;2024-01-10T01:38:46;22.13;;;10.15;;
35969;SDS011;22448;51.298;6.430;2024-01-10T01:41:13;30.73;;;11.07;;
35969;SDS011;22448;51.298;6.430;2024-01-10T01:43:42;25.27;;;11.20;;
35969;SDS011;22448;51.298;6.430;2024-01-10T01:46:09;24.63;;;10.52;;
35969;SDS011;22448;51.298;6.430;2024-01-10T01:48:37;22.08;;;9.52;;
35969;SDS011;22448;51.298;6.430;2024-01-10T01:51:05;26.60;;;10.75;;
35969;SDS011;22448;51.298;6.430;2024-01-10T01:53:33;26.85;;;9.80;;
35969;SDS011;22448;51.298;6.430;2024-01-10T01:56:03;20.73;;;9.63;;
35969;SDS011;22448;51.298;6.430;2024-01-10T01:58:32;26.92;;;10.35;;
35969;SDS011;22448;51.298;6.430;2024-01-10T02:01:01;29.23;;;9.63;;
35969;SDS011;22448;51.298;6.430;2024-01-10T02:03:30;22.25;;;9.60;;
35969;SDS011;22448;51.298;6.430;2024-01-10T02:05:59;21.63;;;9.48;;
35969;SDS011;22448;51.298;6.430;2024-01-10T02:08:32;21.98;;;9.02;;
35969;SDS011;22448;51.298;6.430;2024-01-10T02:11:00;23.67;;;8.90;;
35969;SDS011;22448;51.298;6.430;2024-01-10T02:13:28;23.55;;;9.18;;
35969;SDS011;22448;51.298;6.430;2024-01-10T02:15:56;18.17;;;8.18;;
35969;SDS011;22448;51.298;6.430;2024-01-10T02:18:23;23.05;;;8.77;;
35969;SDS011;22448;51.298;6.430;2024-01-10T02:20:51;17.17;;;8.65;;
35969;SDS011;22448;51.298;6.430;2024-01-10T02:23:19;20.77;;;8.48;;
35969;SDS011;22448;51.298;6.430;2024-01-10T02:25:46;19.58;;;8.27;;
35969;SDS011;22448;51.298;6.430;2024-01-10T02:28:13;20.05;;;7.95;;
35969;SDS011;22448;51.298;6.430;2024-01-10T02:30:40;19.63;;;8.77;;
35969;SDS011;22448;51.298;6.430;2024-01-10T02:33:07;19.17;;;8.60;;
35969;SDS011;22448;51.298;6.430;2024-01-10T02:35:34;21.83;;;7.60;;
35969;SDS011;22448;51.298;6.430;2024-01-10T02:38:02;18.35;;;7.82;;
35969;SDS011;22448;51.298;6.430;2024-01-10T02:40:30;16.83;;;8.02;;
35969;SDS011;22448;51.298;6.430;2024-01-10T02:42:57;16.42;;;7.40;;
35969;SDS011;22448;51.298;6.430;2024-01-10T02:45:24;21.80;;;8.95;;
35969;SDS011;22448;51.298;6.430;2024-01-10T02:47:51;22.70;;;8.27;;
35969;SDS011;22448;51.298;6.430;2024-01-10T02:50:19;20.00;;;7.63;;
35969;SDS011;22448;51.298;6.430;2024-01-10T02:52:46;15.00;;;7.32;;
35969;SDS011;22448;51.298;6.430;2024-01-10T02:55:13;19.45;;;8.98;;
35969;SDS011;22448;51.298;6.430;2024-01-10T02:57:40;17.35;;;7.70;;
35969;SDS011;22448;51.298;6.430;2024-01-10T03:00:07;17.85;;;7.97;;
35969;SDS011;22448;51.298;6.430;2024-01-10T03:02:34;21.40;;;8.00;;
35969;SDS011;22448;51.298;6.430;2024-01-10T03:05:02;20.42;;;8.75;;
35969;SDS011;22448;51.298;6.430;2024-01-10T03:07:29;18.25;;;8.20;;
35969;SDS011;22448;51.298;6.430;2024-01-10T03:09:56;20.15;;;8.60;;
35969;SDS011;22448;51.298;6.430;2024-01-10T03:12:23;27.80;;;8.70;;
35969;SDS011;22448;51.298;6.430;2024-01-10T03:14:50;19.67;;;8.60;;
35969;SDS011;22448;51.298;6.430;2024-01-10T03:17:17;21.20;;;8.18;;
35969;SDS011;22448;51.298;6.430;2024-01-10T03:19:44;22.90;;;8.20;;
35969;SDS011;22448;51.298;6.430;2024-01-10T03:22:11;17.58;;;7.80;;
35969;SDS011;22448;51.298;6.430;2024-01-10T03:24:38;18.35;;;7.43;;
35969;SDS011;22448;51.298;6.430;2024-01-10T03:27:05;17.77;;;8.48;;
35969;SDS011;22448;51.298;6.430;2024-01-10T03:29:33;20.27;;;7.60;;
35969;SDS011;22448;51.298;6.430;2024-01-10T03:32:01;20.70;;;8.35;;
35969;SDS011;22448;51.298;6.430;2024-01-10T03:34:29;21.75;;;7.90;;
35969;SDS011;22448;51.298;6.430;2024-01-10T03:36:56;17.33;;;8.23;;
35969;SDS011;22448;51.298;6.430;2024-01-10T03:39:23;16.48;;;7.22;;
35969;SDS011;22448;51.298;6.430;2024-01-10T03:41:50;16.85;;;7.65;;
35969;SDS011;22448;51.298;6.430;2024-01-10T03:44:17;18.50;;;8.27;;
35969;SDS011;22448;51.298;6.430;2024-01-10T03:46:44;19.00;;;7.93;;
35969;SDS011;22448;51.298;6.430;2024-01-10T03:49:11;22.33;;;8.40;;
35969;SDS011;22448;51.298;6.430;2024-01-10T03:51:38;19.33;;;8.85;;
35969;SDS011;22448;51.298;6.430;2024-01-10T03:54:06;18.02;;;8.82;;
35969;SDS011;22448;51.298;6.430;2024-01-10T03:56:34;22.27;;;8.93;;
35969;SDS011;22448;51.298;6.430;2024-01-10T03:59:01;23.48;;;8.75;;
35969;SDS011;22448;51.298;6.430;2024-01-10T04:01:28;20.45;;;7.72;;
35969;SDS011;22448;51.298;6.430;2024-01-10T04:03:55;18.40;;;8.30;;
35969;SDS011;22448;51.298;6.430;2024-01-10T04:06:24;19.52;;;8.57;;
35969;SDS011;22448;51.298;6.430;2024-01-10T04:08:51;21.80;;;8.52;;
35969;SDS011;22448;51.298;6.430;2024-01-10T04:11:18;21.60;;;8.75;;
35969;SDS011;22448;51.298;6.430;2024-01-10T04:13:45;24.15;;;9.23;;
35969;SDS011;22448;51.298;6.430;2024-01-10T04:16:12;20.05;;;8.73;;
35969;SDS011;22448;51.298;6.430;2024-01-10T04:18:39;17.23;;;8.20;;
35969;SDS011;22448;51.298;6.430;2024-01-10T04:21:07;17.85;;;8.27;;
35969;SDS011;22448;51.298;6.430;2024-01-10T04:23:35;20.88;;;8.57;;
35969;SDS011;22448;51.298;6.430;2024-01-10T04:26:02;28.20;;;8.85;;
35969;SDS011;22448;51.298;6.430;2024-01-10T04:28:30;21.85;;;9.48;;
35969;SDS011;22448;51.298;6.430;2024-01-10T04:30:57;20.20;;;8.68;;
35969;SDS011;22448;51.298;6.430;2024-01-10T04:33:24;16.48;;;7.95;;
35969;SDS011;22448;51.298;6.430;2024-01-10T04:35:51;19.80;;;8.55;;
35969;SDS011;22448;51.298;6.430;2024-01-10T04:38:18;18.40;;;8.77;;
35969;SDS011;22448;51.298;6.430;2024-01-10T04:40:45;21.10;;;8.90;;
35969;SDS011;22448;51.298;6.430;2024-01-10T04:43:13;18.73;;;8.98;;
35969;SDS011;22448;51.298;6.430;2024-01-10T04:45:40;23.73;;;9.15;;
35969;SDS011;22448;51.298;6.430;2024-01-10T04:48:07;19.25;;;8.70;;
35969;SDS011;22448;51.298;6.430;2024-01-10T04:50:34;21.80;;;9.00;;
35969;SDS011;22448;51.298;6.430;2024-01-10T04:53:01;20.27;;;9.05;;
35969;SDS011;22448;51.298;6.430;2024-01-10T04:55:28;24.45;;;9.32;;
35969;SDS011;22448;51.298;6.430;2024-01-10T04:57:55;20.42;;;9.48;;
35969;SDS011;22448;51.298;6.430;2024-01-10T05:00:23;19.75;;;9.05;;
35969;SDS011;22448;51.298;6.430;2024-01-10T05:02:50;18.40;;;8.80;;
35969;SDS011;22448;51.298;6.430;2024-01-10T05:05:20;22.60;;;9.13;;
35969;SDS011;22448;51.298;6.430;2024-01-10T05:07:50;23.85;;;9.88;;
35969;SDS011;22448;51.298;6.430;2024-01-10T05:10:18;21.05;;;9.15;;
35969;SDS011;22448;51.298;6.430;2024-01-10T05:12:45;19.02;;;9.35;;
35969;SDS011;22448;51.298;6.430;2024-01-10T05:15:12;22.88;;;9.32;;
35969;SDS011;22448;51.298;6.430;2024-01-10T05:17:39;22.10;;;9.35;;
35969;SDS011;22448;51.298;6.430;2024-01-10T05:20:06;23.95;;;9.60;;
35969;SDS011;22448;51.298;6.430;2024-01-10T05:22:34;21.98;;;9.43;;
35969;SDS011;22448;51.298;6.430;2024-01-10T05:25:02;20.85;;;9.88;;
35969;SDS011;22448;51.298;6.430;2024-01-10T05:27:31;26.27;;;10.43;;
35969;SDS011;22448;51.298;6.430;2024-01-10T05:29:58;24.20;;;10.25;;
35969;SDS011;22448;51.298;6.430;2024-01-10T05:32:26;20.80;;;9.15;;
35969;SDS011;22448;51.298;6.430;2024-01-10T05:34:54;23.55;;;10.55;;
35969;SDS011;22448;51.298;6.430;2024-01-10T05:37:21;24.90;;;9.68;;
35969;SDS011;22448;51.298;6.430;2024-01-10T05:39:48;23.25;;;9.43;;
35969;SDS011;22448;51.298;6.430;2024-01-10T05:42:16;21.75;;;9.50;;
35969;SDS011;22448;51.298;6.430;2024-01-10T05:44:43;26.13;;;10.70;;
35969;SDS011;22448;51.298;6.430;2024-01-10T05:47:10;23.50;;;10.57;;
35969;SDS011;22448;51.298;6.430;2024-01-10T05:49:37;25.38;;;10.85;;
35969;SDS011;22448;51.298;6.430;2024-01-10T05:52:04;23.65;;;9.43;;
35969;SDS011;22448;51.298;6.430;2024-01-10T05:54:31;20.70;;;9.43;;
35969;SDS011;22448;51.298;6.430;2024-01-10T05:56:58;26.67;;;11.30;;
35969;SDS011;22448;51.298;6.430;2024-01-10T05:59:27;19.40;;;9.60;;
35969;SDS011;22448;51.298;6.430;2024-01-10T06:01:55;27.25;;;11.05;;
35969;SDS011;22448;51.298;6.430;2024-01-10T06:04:23;23.55;;;10.07;;
35969;SDS011;22448;51.298;6.430;2024-01-10T06:06:50;26.38;;;10.07;;
35969;SDS011;22448;51.298;6.430;2024-01-10T06:09:17;31.60;;;10.60;;
35969;SDS011;22448;51.298;6.430;2024-01-10T06:11:48;24.73;;;10.05;;
35969;SDS011;22448;51.298;6.430;2024-01-10T06:14:15;23.67;;;9.73;;
35969;SDS011;22448;51.298;6.430;2024-01-10T06:16:43;27.35;;;9.80;;
35969;SDS011;22448;51.298;6.430;2024-01-10T06:19:11;25.35;;;11.07;;
35969;SDS011;22448;51.298;6.430;2024-01-10T06:21:39;24.77;;;10.68;;
35969;SDS011;22448;51.298;6.430;2024-01-10T06:24:06;30.48;;;11.55;;
35969;SDS011;22448;51.298;6.430;2024-01-10T06:26:34;27.95;;;11.20;;
35969;SDS011;22448;51.298;6.430;2024-01-10T06:29:01;28.52;;;11.02;;
35969;SDS011;22448;51.298;6.430;2024-01-10T06:31:28;25.15;;;10.45;;
35969;SDS011;22448;51.298;6.430;2024-01-10T06:33:55;25.13;;;11.55;;
35969;SDS011;22448;51.298;6.430;2024-01-10T06:36:23;25.13;;;11.00;;
35969;SDS011;22448;51.298;6.430;2024-01-10T06:38:50;26.20;;;11.00;;
35969;SDS011;22448;51.298;6.430;2024-01-10T06:41:17;29.65;;;11.38;;
35969;SDS011;22448;51.298;6.430;2024-01-10T06:43:51;28.50;;;11.52;;
35969;SDS011;22448;51.298;6.430;2024-01-10T06:46:19;26.23;;;12.10;;
35969;SDS011;22448;51.298;6.430;2024-01-10T06:48:47;29.88;;;12.57;;
35969;SDS011;22448;51.298;6.430;2024-01-10T06:51:14;28.25;;;12.27;;
35969;SDS011;22448;51.298;6.430;2024-01-10T06:53:42;30.42;;;12.75;;
35969;SDS011;22448;51.298;6.430;2024-01-10T06:56:09;35.35;;;13.07;;
35969;SDS011;22448;51.298;6.430;2024-01-10T06:58:38;35.75;;;13.70;;
35969;SDS011;22448;51.298;6.430;2024-01-10T07:01:10;40.55;;;15.60;;
35969;SDS011;22448;51.298;6.430;2024-01-10T07:03:40;38.78;;;14.13;;
35969;SDS011;22448;51.298;6.430;2024-01-10T07:06:08;33.08;;;13.88;;
35969;SDS011;22448;51.298;6.430;2024-01-10T07:08:35;31.45;;;12.88;;
35969;SDS011;22448;51.298;6.430;2024-01-10T07:11:02;44.15;;;13.80;;
35969;SDS011;22448;51.298;6.430;2024-01-10T07:13:30;37.55;;;13.65;;
35969;SDS011;22448;51.298;6.430;2024-01-10T07:15:58;39.55;;;15.70;;
35969;SDS011;22448;51.298;6.430;2024-01-10T07:18:29;31.77;;;13.23;;
35969;SDS011;22448;51.298;6.430;2024-01-10T07:20:57;33.15;;;12.85;;
35969;SDS011;22448;51.298;6.430;2024-01-10T07:23:24;33.95;;;13.43;;
35969;SDS011;22448;51.298;6.430;2024-01-10T07:25:51;38.38;;;14.45;;
35969;SDS011;22448;51.298;6.430;2024-01-10T07:28:19;30.27;;;12.43;;
35969;SDS011;22448;51.298;6.430;2024-01-10T07:30:46;32.80;;;13.02;;
35969;SDS011;22448;51.298;6.430;2024-01-10T07:33:13;32.80;;;11.95;;
35969;SDS011;22448;51.298;6.430;2024-01-10T07:35:41;38.28;;;12.88;;
35969;SDS011;22448;51.298;6.430;2024-01-10T07:38:08;34.28;;;13.70;;
35969;SDS011;22448;51.298;6.430;2024-01-10T07:40:35;29.02;;;11.30;;
35969;SDS011;22448;51.298;6.430;2024-01-10T07:43:03;33.08;;;13.02;;
35969;SDS011;22448;51.298;6.430;2024-01-10T07:45:31;30.23;;;12.93;;
35969;SDS011;22448;51.298;6.430;2024-01-10T07:47:58;35.60;;;13.85;;
35969;SDS011;22448;51.298;6.430;2024-01-10T07:50:25;35.95;;;14.00;;
35969;SDS011;22448;51.298;6.430;2024-01-10T07:52:55;30.45;;;12.15;;
35969;SDS011;22448;51.298;6.430;2024-01-10T07:55:22;29.63;;;11.90;;
35969;SDS011;22448;51.298;6.430;2024-01-10T07:57:49;28.52;;;12.38;;
35969;SDS011;22448;51.298;6.430;2024-01-10T08:00:16;34.60;;;12.75;;
35969;SDS011;22448;51.298;6.430;2024-01-10T08:02:46;31.33;;;12.60;;
35969;SDS011;22448;51.298;6.430;2024-01-10T08:05:15;34.28;;;13.95;;
35969;SDS011;22448;51.298;6.430;2024-01-10T08:07:42;39.88;;;13.57;;
35969;SDS011;22448;51.298;6.430;2024-01-10T08:10:09;32.17;;;13.35;;
35969;SDS011;22448;51.298;6.430;2024-01-10T08:12:37;37.45;;;13.63;;
35969;SDS011;22448;51.298;6.430;2024-01-10T08:15:05;29.63;;;12.60;;
35969;SDS011;22448;51.298;6.430;2024-01-10T08:17:33;36.80;;;13.93;;
35969;SDS011;22448;51.298;6.430;2024-01-10T08:20:01;33.97;;;13.80;;
35969;SDS011;22448;51.298;6.430;2024-01-10T08:22:30;33.35;;;12.88;;
35969;SDS011;22448;51.298;6.430;2024-01-10T08:24:57;29.35;;;13.43;;
35969;SDS011;22448;51.298;6.430;2024-01-10T08:27:24;31.60;;;13.85;;
35969;SDS011;22448;51.298;6.430;2024-01-10T08:29:51;30.95;;;13.55;;
35969;SDS011;22448;51.298;6.430;2024-01-10T08:32:18;29.90;;;12.75;;
35969;SDS011;22448;51.298;6.430;2024-01-10T08:34:48;36.60;;;13.70;;
35969;SDS011;22448;51.298;6.430;2024-01-10T08:37:16;35.13;;;12.88;;
35969;SDS011;22448;51.298;6.430;2024-01-10T08:39:43;44.50;;;18.08;;
35969;SDS011;22448;51.298;6.430;2024-01-10T08:42:11;33.30;;;12.73;;
35969;SDS011;22448;51.298;6.430;2024-01-10T08:44:38;28.20;;;13.13;;
35969;SDS011;22448;51.298;6.430;2024-01-10T08:47:05;37.03;;;15.07;;
35969;SDS011;22448;51.298;6.430;2024-01-10T08:49:32;36.22;;;14.95;;
35969;SDS011;22448;51.298;6.430;2024-01-10T08:51:59;45.53;;;16.73;;
35969;SDS011;22448;51.298;6.430;2024-01-10T08:54:26;46.88;;;19.08;;
35969;SDS011;22448;51.298;6.430;2024-01-10T08:56:53;42.85;;;16.95;;
35969;SDS011;22448;51.298;6.430;2024-01-10T08:59:20;52.00;;;20.33;;
35969;SDS011;22448;51.298;6.430;2024-01-10T09:01:47;49.63;;;18.02;;
35969;SDS011;22448;51.298;6.430;2024-01-10T09:04:15;102.90;;;36.78;;
35969;SDS011;22448;51.298;6.430;2024-01-10T09:06:42;80.47;;;32.50;;
35969;SDS011;22448;51.298;6.430;2024-01-10T09:09:09;37.03;;;16.10;;
35969;SDS011;22448;51.298;6.430;2024-01-10T09:11:36;41.53;;;15.57;;
35969;SDS011;22448;51.298;6.430;2024-01-10T09:14:07;38.20;;;14.77;;
35969;SDS011;22448;51.298;6.430;2024-01-10T09:16:35;32.00;;;13.82;;
35969;SDS011;22448;51.298;6.430;2024-01-10T09:19:02;56.90;;;23.88;;
35969;SDS011;22448;51.298;6.430;2024-01-10T09:21:31;41.00;;;16.77;;
35969;SDS011;22448;51.298;6.430;2024-01-10T09:23:58;42.10;;;16.00;;
35969;SDS011;22448;51.298;6.430;2024-01-10T09:26:36;55.35;;;17.73;;
35969;SDS011;22448;51.298;6.430;2024-01-10T09:29:03;47.13;;;18.67;;
35969;SDS011;22448;51.298;6.430;2024-01-10T09:31:32;44.22;;;16.80;;
35969;SDS011;22448;51.298;6.430;2024-01-10T09:33:59;47.17;;;20.33;;
35969;SDS011;22448;51.298;6.430;2024-01-10T09:36:26;55.13;;;22.50;;
35969;SDS011;22448;51.298;6.430;2024-01-10T09:38:53;48.15;;;19.77;;
35969;SDS011;22448;51.298;6.430;2024-01-10T09:41:20;55.75;;;23.98;;
35969;SDS011;22448;51.298;6.430;2024-01-10T09:43:49;52.85;;;23.30;;
35969;SDS011;22448;51.298;6.430;2024-01-10T09:46:16;90.00;;;39.03;;
35969;SDS011;22448;51.298;6.430;2024-01-10T09:48:45;45.47;;;20.17;;
35969;SDS011;22448;51.298;6.430;2024-01-10T09:51:14;71.38;;;28.65;;
35969;SDS011;22448;51.298;6.430;2024-01-10T09:53:44;55.92;;;20.77;;
35969;SDS011;22448;51.298;6.430;2024-01-10T09:56:16;49.15;;;21.40;;
35969;SDS011;22448;51.298;6.430;2024-01-10T09:58:45;61.55;;;21.75;;
35969;SDS011;22448;51.298;6.430;2024-01-10T10:01:14;50.70;;;20.08;;
35969;SDS011;22448;51.298;6.430;2024-01-10T10:03:42;39.78;;;15.30;;
35969;SDS011;22448;51.298;6.430;2024-01-10T10:06:13;51.40;;;23.17;;
35969;SDS011;22448;51.298;6.430;2024-01-10T10:08:41;56.90;;;25.98;;
35969;SDS011;22448;51.298;6.430;2024-01-10T10:11:12;54.65;;;24.35;;
35969;SDS011;22448;51.298;6.430;2024-01-10T10:13:42;49.70;;;21.08;;
35969;SDS011;22448;51.298;6.430;2024-01-10T10:16:10;43.40;;;15.02;;
35969;SDS011;22448;51.298;6.430;2024-01-10T10:18:39;42.70;;;16.90;;
35969;SDS011;22448;51.298;6.430;2024-01-10T10:21:14;40.20;;;17.58;;
35969;SDS011;22448;51.298;6.430;2024-01-10T10:23:43;50.47;;;20.58;;
35969;SDS011;22448;51.298;6.430;2024-01-10T10:26:23;44.95;;;17.30;;
35969;SDS011;22448;51.298;6.430;2024-01-10T10:28:53;46.25;;;17.35;;
35969;SDS011;22448;51.298;6.430;2024-01-10T10:31:20;41.88;;;17.50;;
35969;SDS011;22448;51.298;6.430;2024-01-10T10:33:48;38.33;;;16.35;;
35969;SDS011;22448;51.298;6.430;2024-01-10T10:36:19;37.10;;;16.15;;
35969;SDS011;22448;51.298;6.430;2024-01-10T10:38:49;39.35;;;15.75;;
35969;SDS011;22448;51.298;6.430;2024-01-10T10:41:16;33.63;;;14.90;;
35969;SDS011;22448;51.298;6.430;2024-01-10T10:43:45;39.83;;;16.35;;
35969;SDS011;22448;51.298;6.430;2024-01-10T10:46:14;40.50;;;16.77;;
35969;SDS011;22448;51.298;6.430;2024-01-10T10:48:42;50.33;;;22.48;;
35969;SDS011;22448;51.298;6.430;2024-01-10T10:51:11;41.97;;;16.00;;
35969;SDS011;22448;51.298;6.430;2024-01-10T10:53:44;39.22;;;16.25;;
35969;SDS011;22448;51.298;6.430;2024-01-10T10:56:12;68.57;;;26.77;;
35969;SDS011;22448;51.298;6.430;2024-01-10T10:58:41;40.90;;;17.77;;
35969;SDS011;22448;51.298;6.430;2024-01-10T11:01:11;55.08;;;23.40;;
35969;SDS011;22448;51.298;6.430;2024-01-10T11:03:39;45.42;;;17.10;;
35969;SDS011;22448;51.298;6.430;2024-01-10T11:06:09;98.00;;;33.22;;
35969;SDS011;22448;51.298;6.430;2024-01-10T11:08:46;44.75;;;17.42;;
35969;SDS011;22448;51.298;6.430;2024-01-10T11:11:21;232.00;;;72.70;;
35969;SDS011;22448;51.298;6.430;2024-01-10T11:16:57;64.38;;;25.02;;
35969;SDS011;22448;51.298;6.430;2024-01-10T11:19:52;50.15;;;22.77;;
35969;SDS011;22448;51.298;6.430;2024-01-10T11:25:16;35.72;;;16.48;;
35969;SDS011;22448;51.298;6.430;2024-01-10T11:27:44;38.10;;;15.23;;
35969;SDS011;22448;51.298;6.430;2024-01-10T11:30:12;47.40;;;15.88;;
35969;SDS011;22448;51.298;6.430;2024-01-10T11:32:39;32.60;;;14.32;;
35969;SDS011;22448;51.298;6.430;2024-01-10T11:35:18;31.85;;;13.98;;
35969;SDS011;22448;51.298;6.430;2024-01-10T11:37:47;34.08;;;14.48;;
35969;SDS011;22448;51.298;6.430;2024-01-10T11:40:23;34.47;;;14.30;;
35969;SDS011;22448;51.298;6.430;2024-01-10T11:43:14;33.55;;;13.90;;
35969;SDS011;22448;51.298;6.430;2024-01-10T11:45:59;34.33;;;15.13;;
35969;SDS011;22448;51.298;6.430;2024-01-10T11:48:32;27.65;;;12.77;;
35969;SDS011;22448;51.298;6.430;2024-01-10T11:50:59;30.65;;;13.88;;
35969;SDS011;22448;51.298;6.430;2024-01-10T11:56:10;31.60;;;13.57;;
35969;SDS011;22448;51.298;6.430;2024-01-10T11:59:02;36.03;;;14.20;;
35969;SDS011;22448;51.298;6.430;2024-01-10T12:01:38;40.97;;;15.13;;
35969;SDS011;22448;51.298;6.430;2024-01-10T12:04:06;29.73;;;15.10;;
35969;SDS011;22448;51.298;6.430;2024-01-10T12:06:46;35.03;;;14.20;;
35969;SDS011;22448;51.298;6.430;2024-01-10T12:09:14;39.03;;;15.48;;
35969;SDS011;22448;51.298;6.430;2024-01-10T12:11:41;33.20;;;13.70;;
35969;SDS011;22448;51.298;6.430;2024-01-10T12:14:09;27.70;;;12.32;;
35969;SDS011;22448;51.298;6.430;2024-01-10T12:16:36;29.90;;;12.85;;
35969;SDS011;22448;51.298;6.430;2024-01-10T12:19:03;34.80;;;14.13;;
35969;SDS011;22448;51.298;6.430;2024-01-10T12:21:31;30.33;;;13.70;;
35969;SDS011;22448;51.298;6.430;2024-01-10T12:23:58;35.75;;;14.27;;
35969;SDS011;22448;51.298;6.430;2024-01-10T12:26:26;27.00;;;12.48;;
35969;SDS011;22448;51.298;6.430;2024-01-10T12:28:57;33.47;;;14.55;;
35969;SDS011;22448;51.298;6.430;2024-01-10T12:31:28;32.00;;;13.32;;
35969;SDS011;22448;51.298;6.430;2024-01-10T12:33:56;37.95;;;15.75;;
35969;SDS011;22448;51.298;6.430;2024-01-10T12:36:26;33.28;;;14.32;;
35969;SDS011;22448;51.298;6.430;2024-01-10T12:38:53;38.70;;;14.27;;
35969;SDS011;22448;51.298;6.430;2024-01-10T12:41:21;38.47;;;15.90;;
35969;SDS011;22448;51.298;6.430;2024-01-10T12:43:49;32.60;;;16.08;;
35969;SDS011;22448;51.298;6.430;2024-01-10T12:46:19;36.60;;;15.52;;
35969;SDS011;22448;51.298;6.430;2024-01-10T12:48:49;32.47;;;15.15;;
35969;SDS011;22448;51.298;6.430;2024-01-10T12:51:25;28.23;;;13.18;;
35969;SDS011;22448;51.298;6.430;2024-01-10T12:53:53;30.40;;;14.05;;
35969;SDS011;22448;51.298;6.430;2024-01-10T12:56:20;35.33;;;14.20;;
35969;SDS011;22448;51.298;6.430;2024-01-10T12:58:47;35.00;;;15.18;;
35969;SDS011;22448;51.298;6.430;2024-01-10T13:01:14;30.02;;;14.82;;
35969;SDS011;22448;51.298;6.430;2024-01-10T13:03:42;30.73;;;12.85;;
35969;SDS011;22448;51.298;6.430;2024-01-10T13:06:09;37.17;;;13.60;;
35969;SDS011;22448;51.298;6.430;2024-01-10T13:08:36;37.25;;;17.77;;
35969;SDS011;22448;51.298;6.430;2024-01-10T13:11:04;39.25;;;17.75;;
35969;SDS011;22448;51.298;6.430;2024-01-10T13:13:35;81.95;;;36.13;;
35969;SDS011;22448;51.298;6.430;2024-01-10T13:16:02;112.93;;;49.85;;
35969;SDS011;22448;51.298;6.430;2024-01-10T13:18:30;92.13;;;42.08;;
35969;SDS011;22448;51.298;6.430;2024-01-10T13:20:57;90.88;;;34.72;;
35969;SDS011;22448;51.298;6.430;2024-01-10T13:23:24;44.10;;;19.73;;
35969;SDS011;22448;51.298;6.430;2024-01-10T13:25:52;45.78;;;18.55;;
35969;SDS011;22448;51.298;6.430;2024-01-10T13:28:19;179.38;;;67.32;;
35969;SDS011;22448;51.298;6.430;2024-01-10T13:30:47;85.68;;;33.03;;
35969;SDS011;22448;51.298;6.430;2024-01-10T13:33:14;49.40;;;19.50;;
35969;SDS011;22448;51.298;6.430;2024-01-10T13:35:41;95.75;;;38.17;;
35969;SDS011;22448;51.298;6.430;2024-01-10T13:38:08;127.82;;;52.13;;
35969;SDS011;22448;51.298;6.430;2024-01-10T13:40:36;57.13;;;24.95;;
35969;SDS011;22448;51.298;6.430;2024-01-10T13:43:05;40.13;;;17.25;;
35969;SDS011;22448;51.298;6.430;2024-01-10T13:45:32;42.35;;;18.52;;
35969;SDS011;22448;51.298;6.430;2024-01-10T13:48:00;63.90;;;31.90;;
35969;SDS011;22448;51.298;6.430;2024-01-10T13:50:27;42.47;;;17.75;;
35969;SDS011;22448;51.298;6.430;2024-01-10T13:52:56;33.28;;;14.52;;
35969;SDS011;22448;51.298;6.430;2024-01-10T13:55:23;37.72;;;14.85;;
35969;SDS011;22448;51.298;6.430;2024-01-10T13:57:51;46.63;;;24.15;;
35969;SDS011;22448;51.298;6.430;2024-01-10T14:00:19;42.20;;;19.27;;
35969;SDS011;22448;51.298;6.430;2024-01-10T14:02:47;39.92;;;20.50;;
35969;SDS011;22448;51.298;6.430;2024-01-10T14:05:14;62.88;;;32.80;;
35969;SDS011;22448;51.298;6.430;2024-01-10T14:07:42;37.83;;;17.05;;
35969;SDS011;22448;51.298;6.430;2024-01-10T14:10:13;36.63;;;14.82;;
35969;SDS011;22448;51.298;6.430;2024-01-10T14:12:40;37.53;;;16.80;;
35969;SDS011;22448;51.298;6.430;2024-01-10T14:15:07;44.63;;;20.92;;
35969;SDS011;22448;51.298;6.430;2024-01-10T14:17:35;48.95;;;19.33;;
35969;SDS011;22448;51.298;6.430;2024-01-10T14:20:03;47.15;;;19.52;;
35969;SDS011;22448;51.298;6.430;2024-01-10T14:22:30;53.40;;;20.50;;
35969;SDS011;22448;51.298;6.430;2024-01-10T14:24:59;46.25;;;21.05;;
35969;SDS011;22448;51.298;6.430;2024-01-10T14:27:28;49.38;;;21.13;;
35969;SDS011;22448;51.298;6.430;2024-01-10T14:29:56;50.83;;;22.67;;
35969;SDS011;22448;51.298;6.430;2024-01-10T14:32:23;44.65;;;20.35;;
35969;SDS011;22448;51.298;6.430;2024-01-10T14:34:50;55.75;;;22.52;;
35969;SDS011;22448;51.298;6.430;2024-01-10T14:37:17;50.08;;;22.33;;
35969;SDS011;22448;51.298;6.430;2024-01-10T14:39:44;57.83;;;21.48;;